sensor_id;sensor_type;location;lat;lon;timestamp;P1;durP1;ratioP1;P2;durP2;ratioP2
46222;SDS011;31943;51.410;7.564;2023-02-12T00:01:40;72.25;;;45.55;;
46222;SDS011;31943;51.410;7.564;2023-02-12T00:04:05;74.38;;;44.03;;
46222;SDS011;31943;51.410;7.564;2023-02-12T00:06:33;69.47;;;44.58;;
46222;SDS011;31943;51.410;7.564;2023-02-12T00:08:59;72.40;;;42.90;;
46222;SDS011;31943;51.410;7.564;2023-02-12T00:11:25;73.90;;;45.25;;
46222;SDS011;31943;51.410;7.564;2023-02-12T00:13:52;73.85;;;44.13;;
46222;SDS011;31943;51.410;7.564;2023-02-12T00:16:19;73.57;;;45.00;;
46222;SDS011;31943;51.410;7.564;2023-02-12T00:18:46;67.20;;;42.58;;
46222;SDS011;31943;51.410;7.564;2023-02-12T00:21:15;69.82;;;43.20;;
46222;SDS011;31943;51.410;7.564;2023-02-12T00:23:44;73.00;;;44.53;;
46222;SDS011;31943;51.410;7.564;2023-02-12T00:26:11;73.47;;;45.28;;
46222;SDS011;31943;51.410;7.564;2023-02-12T00:28:39;71.15;;;42.15;;
46222;SDS011;31943;51.410;7.564;2023-02-12T00:31:05;66.10;;;40.78;;
46222;SDS011;31943;51.410;7.564;2023-02-12T00:33:32;66.68;;;40.30;;
46222;SDS011;31943;51.410;7.564;2023-02-12T00:35:57;65.05;;;42.05;;
46222;SDS011;31943;51.410;7.564;2023-02-12T00:38:23;68.78;;;43.22;;
46222;SDS011;31943;51.410;7.564;2023-02-12T00:40:51;65.40;;;40.63;;
46222;SDS011;31943;51.410;7.564;2023-02-12T00:43:18;63.58;;;41.17;;
46222;SDS011;31943;51.410;7.564;2023-02-12T00:45:45;68.22;;;42.10;;
46222;SDS011;31943;51.410;7.564;2023-02-12T00:48:12;70.57;;;43.47;;
46222;SDS011;31943;51.410;7.564;2023-02-12T00:50:38;70.97;;;41.47;;
46222;SDS011;31943;51.410;7.564;2023-02-12T00:53:04;63.58;;;39.03;;
46222;SDS011;31943;51.410;7.564;2023-02-12T00:55:30;65.72;;;40.40;;
46222;SDS011;31943;51.410;7.564;2023-02-12T00:57:58;63.88;;;41.03;;
46222;SDS011;31943;51.410;7.564;2023-02-12T01:00:24;59.20;;;38.10;;
46222;SDS011;31943;51.410;7.564;2023-02-12T01:02:50;58.88;;;39.25;;
46222;SDS011;31943;51.410;7.564;2023-02-12T01:05:16;61.67;;;37.67;;
46222;SDS011;31943;51.410;7.564;2023-02-12T01:07:43;65.90;;;40.20;;
46222;SDS011;31943;51.410;7.564;2023-02-12T01:10:12;58.17;;;38.05;;
46222;SDS011;31943;51.410;7.564;2023-02-12T01:12:38;63.53;;;36.33;;
46222;SDS011;31943;51.410;7.564;2023-02-12T01:15:07;54.45;;;35.53;;
46222;SDS011;31943;51.410;7.564;2023-02-12T01:17:34;62.67;;;38.67;;
46222;SDS011;31943;51.410;7.564;2023-02-12T01:20:01;59.22;;;37.60;;
46222;SDS011;31943;51.410;7.564;2023-02-12T01:22:27;59.80;;;37.53;;
46222;SDS011;31943;51.410;7.564;2023-02-12T01:24:55;64.15;;;38.22;;
46222;SDS011;31943;51.410;7.564;2023-02-12T01:27:20;58.40;;;37.05;;
46222;SDS011;31943;51.410;7.564;2023-02-12T01:29:46;56.05;;;36.63;;
46222;SDS011;31943;51.410;7.564;2023-02-12T01:32:15;52.30;;;36.13;;
46222;SDS011;31943;51.410;7.564;2023-02-12T01:34:40;58.00;;;37.35;;
46222;SDS011;31943;51.410;7.564;2023-02-12T01:37:06;55.03;;;35.50;;
46222;SDS011;31943;51.410;7.564;2023-02-12T01:39:32;58.00;;;37.58;;
46222;SDS011;31943;51.410;7.564;2023-02-12T01:41:58;55.70;;;36.42;;
46222;SDS011;31943;51.410;7.564;2023-02-12T01:44:24;58.15;;;37.03;;
46222;SDS011;31943;51.410;7.564;2023-02-12T01:46:54;61.00;;;38.10;;
46222;SDS011;31943;51.410;7.564;2023-02-12T01:49:24;63.58;;;38.05;;
46222;SDS011;31943;51.410;7.564;2023-02-12T01:51:56;59.33;;;36.90;;
46222;SDS011;31943;51.410;7.564;2023-02-12T01:54:25;58.88;;;37.88;;
46222;SDS011;31943;51.410;7.564;2023-02-12T01:56:52;62.00;;;38.90;;
46222;SDS011;31943;51.410;7.564;2023-02-12T01:59:19;57.78;;;35.95;;
46222;SDS011;31943;51.410;7.564;2023-02-12T02:01:46;55.25;;;35.78;;
46222;SDS011;31943;51.410;7.564;2023-02-12T02:04:13;55.03;;;38.00;;
46222;SDS011;31943;51.410;7.564;2023-02-12T02:06:45;59.58;;;37.40;;
46222;SDS011;31943;51.410;7.564;2023-02-12T02:09:16;61.65;;;37.42;;
46222;SDS011;31943;51.410;7.564;2023-02-12T02:11:43;55.58;;;35.60;;
46222;SDS011;31943;51.410;7.564;2023-02-12T02:14:09;62.80;;;39.50;;
46222;SDS011;31943;51.410;7.564;2023-02-12T02:16:35;57.40;;;38.05;;
46222;SDS011;31943;51.410;7.564;2023-02-12T02:19:04;57.97;;;36.42;;
46222;SDS011;31943;51.410;7.564;2023-02-12T02:24:52;60.78;;;36.78;;
46222;SDS011;31943;51.410;7.564;2023-02-12T02:27:41;58.42;;;37.63;;
46222;SDS011;31943;51.410;7.564;2023-02-12T02:30:30;63.88;;;37.72;;
46222;SDS011;31943;51.410;7.564;2023-02-12T02:33:04;58.47;;;35.80;;
46222;SDS011;31943;51.410;7.564;2023-02-12T02:35:40;51.78;;;34.58;;
46222;SDS011;31943;51.410;7.564;2023-02-12T02:38:16;57.83;;;35.25;;
46222;SDS011;31943;51.410;7.564;2023-02-12T02:40:49;57.47;;;35.15;;
46222;SDS011;31943;51.410;7.564;2023-02-12T02:43:21;52.30;;;34.00;;
46222;SDS011;31943;51.410;7.564;2023-02-12T02:45:54;53.42;;;34.40;;
46222;SDS011;31943;51.410;7.564;2023-02-12T02:48:25;55.30;;;34.70;;
46222;SDS011;31943;51.410;7.564;2023-02-12T02:50:56;53.05;;;34.60;;
46222;SDS011;31943;51.410;7.564;2023-02-12T02:53:29;50.15;;;34.22;;
46222;SDS011;31943;51.410;7.564;2023-02-12T02:55:58;48.88;;;33.10;;
46222;SDS011;31943;51.410;7.564;2023-02-12T02:58:28;54.97;;;34.70;;
46222;SDS011;31943;51.410;7.564;2023-02-12T03:01:01;52.15;;;35.25;;
46222;SDS011;31943;51.410;7.564;2023-02-12T03:03:32;56.67;;;35.92;;
46222;SDS011;31943;51.410;7.564;2023-02-12T03:06:03;65.75;;;39.40;;
46222;SDS011;31943;51.410;7.564;2023-02-12T03:08:33;58.40;;;35.83;;
46222;SDS011;31943;51.410;7.564;2023-02-12T03:11:04;60.25;;;37.28;;
46222;SDS011;31943;51.410;7.564;2023-02-12T03:16:03;62.22;;;35.85;;
46222;SDS011;31943;51.410;7.564;2023-02-12T03:18:35;53.30;;;35.25;;
46222;SDS011;31943;51.410;7.564;2023-02-12T03:21:06;59.35;;;37.15;;
46222;SDS011;31943;51.410;7.564;2023-02-12T03:23:38;58.80;;;37.00;;
46222;SDS011;31943;51.410;7.564;2023-02-12T03:26:07;57.88;;;35.90;;
46222;SDS011;31943;51.410;7.564;2023-02-12T03:28:36;62.15;;;38.30;;
46222;SDS011;31943;51.410;7.564;2023-02-12T03:31:07;60.75;;;36.83;;
46222;SDS011;31943;51.410;7.564;2023-02-12T03:33:41;58.08;;;36.88;;
46222;SDS011;31943;51.410;7.564;2023-02-12T03:36:14;60.90;;;37.35;;
46222;SDS011;31943;51.410;7.564;2023-02-12T03:38:47;57.05;;;36.85;;
46222;SDS011;31943;51.410;7.564;2023-02-12T03:41:17;61.38;;;37.92;;
46222;SDS011;31943;51.410;7.564;2023-02-12T03:43:49;61.38;;;37.85;;
46222;SDS011;31943;51.410;7.564;2023-02-12T03:46:21;61.00;;;38.05;;
46222;SDS011;31943;51.410;7.564;2023-02-12T03:48:55;63.03;;;37.60;;
46222;SDS011;31943;51.410;7.564;2023-02-12T03:51:26;55.60;;;35.55;;
46222;SDS011;31943;51.410;7.564;2023-02-12T03:53:55;57.05;;;36.10;;
46222;SDS011;31943;51.410;7.564;2023-02-12T03:56:23;55.72;;;36.63;;
46222;SDS011;31943;51.410;7.564;2023-02-12T03:58:52;53.03;;;34.55;;
46222;SDS011;31943;51.410;7.564;2023-02-12T04:01:18;53.65;;;34.63;;
46222;SDS011;31943;51.410;7.564;2023-02-12T04:03:46;55.30;;;35.92;;
46222;SDS011;31943;51.410;7.564;2023-02-12T04:06:18;54.45;;;34.10;;
46222;SDS011;31943;51.410;7.564;2023-02-12T04:08:46;54.25;;;36.13;;
46222;SDS011;31943;51.410;7.564;2023-02-12T04:11:13;52.45;;;34.33;;
46222;SDS011;31943;51.410;7.564;2023-02-12T04:13:49;58.45;;;35.22;;
46222;SDS011;31943;51.410;7.564;2023-02-12T04:16:24;53.30;;;35.30;;
46222;SDS011;31943;51.410;7.564;2023-02-12T04:18:55;54.17;;;32.53;;
46222;SDS011;31943;51.410;7.564;2023-02-12T04:21:27;53.47;;;33.50;;
46222;SDS011;31943;51.410;7.564;2023-02-12T04:24:08;55.88;;;35.35;;
46222;SDS011;31943;51.410;7.564;2023-02-12T04:26:45;53.42;;;34.38;;
46222;SDS011;31943;51.410;7.564;2023-02-12T04:29:16;53.72;;;33.45;;
46222;SDS011;31943;51.410;7.564;2023-02-12T04:31:48;49.85;;;32.50;;
46222;SDS011;31943;51.410;7.564;2023-02-12T04:34:21;56.42;;;33.95;;
46222;SDS011;31943;51.410;7.564;2023-02-12T04:36:52;46.08;;;30.98;;
46222;SDS011;31943;51.410;7.564;2023-02-12T04:39:24;48.10;;;30.90;;
46222;SDS011;31943;51.410;7.564;2023-02-12T04:41:52;51.70;;;32.80;;
46222;SDS011;31943;51.410;7.564;2023-02-12T04:44:22;49.97;;;33.47;;
46222;SDS011;31943;51.410;7.564;2023-02-12T04:46:49;56.67;;;34.88;;
46222;SDS011;31943;51.410;7.564;2023-02-12T04:49:16;53.13;;;32.35;;
46222;SDS011;31943;51.410;7.564;2023-02-12T04:51:44;50.50;;;33.08;;
46222;SDS011;31943;51.410;7.564;2023-02-12T04:54:10;49.17;;;32.95;;
46222;SDS011;31943;51.410;7.564;2023-02-12T04:56:36;52.90;;;33.55;;
46222;SDS011;31943;51.410;7.564;2023-02-12T04:59:02;48.45;;;32.28;;
46222;SDS011;31943;51.410;7.564;2023-02-12T05:01:28;49.08;;;31.55;;
46222;SDS011;31943;51.410;7.564;2023-02-12T05:03:54;47.38;;;30.17;;
46222;SDS011;31943;51.410;7.564;2023-02-12T05:06:19;53.42;;;33.50;;
46222;SDS011;31943;51.410;7.564;2023-02-12T05:08:47;56.20;;;34.15;;
46222;SDS011;31943;51.410;7.564;2023-02-12T05:11:12;48.75;;;31.30;;
46222;SDS011;31943;51.410;7.564;2023-02-12T05:13:38;46.55;;;31.48;;
46222;SDS011;31943;51.410;7.564;2023-02-12T05:16:04;55.55;;;34.38;;
46222;SDS011;31943;51.410;7.564;2023-02-12T05:18:31;48.85;;;30.48;;
46222;SDS011;31943;51.410;7.564;2023-02-12T05:20:58;54.63;;;33.83;;
46222;SDS011;31943;51.410;7.564;2023-02-12T05:23:25;52.03;;;32.97;;
46222;SDS011;31943;51.410;7.564;2023-02-12T05:25:52;50.17;;;32.50;;
46222;SDS011;31943;51.410;7.564;2023-02-12T05:28:19;53.63;;;33.10;;
46222;SDS011;31943;51.410;7.564;2023-02-12T05:30:45;46.78;;;30.40;;
46222;SDS011;31943;51.410;7.564;2023-02-12T05:33:11;47.10;;;31.45;;
46222;SDS011;31943;51.410;7.564;2023-02-12T05:35:36;46.33;;;30.75;;
46222;SDS011;31943;51.410;7.564;2023-02-12T05:38:02;52.03;;;30.88;;
46222;SDS011;31943;51.410;7.564;2023-02-12T05:40:28;53.70;;;33.00;;
46222;SDS011;31943;51.410;7.564;2023-02-12T05:42:55;41.00;;;28.05;;
46222;SDS011;31943;51.410;7.564;2023-02-12T05:45:21;50.10;;;31.25;;
46222;SDS011;31943;51.410;7.564;2023-02-12T05:47:46;47.92;;;31.00;;
46222;SDS011;31943;51.410;7.564;2023-02-12T05:50:12;42.72;;;28.80;;
46222;SDS011;31943;51.410;7.564;2023-02-12T05:52:37;45.00;;;29.98;;
46222;SDS011;31943;51.410;7.564;2023-02-12T05:55:03;43.47;;;29.08;;
46222;SDS011;31943;51.410;7.564;2023-02-12T05:57:29;47.15;;;29.60;;
46222;SDS011;31943;51.410;7.564;2023-02-12T05:59:56;43.05;;;28.70;;
46222;SDS011;31943;51.410;7.564;2023-02-12T06:02:22;44.03;;;28.90;;
46222;SDS011;31943;51.410;7.564;2023-02-12T06:04:47;43.75;;;30.17;;
46222;SDS011;31943;51.410;7.564;2023-02-12T06:07:13;43.40;;;29.67;;
46222;SDS011;31943;51.410;7.564;2023-02-12T06:09:39;43.88;;;28.27;;
46222;SDS011;31943;51.410;7.564;2023-02-12T06:12:04;38.30;;;27.05;;
46222;SDS011;31943;51.410;7.564;2023-02-12T06:14:30;46.25;;;29.35;;
46222;SDS011;31943;51.410;7.564;2023-02-12T06:16:57;41.45;;;27.05;;
46222;SDS011;31943;51.410;7.564;2023-02-12T06:19:23;40.40;;;26.65;;
46222;SDS011;31943;51.410;7.564;2023-02-12T06:21:49;42.40;;;27.52;;
46222;SDS011;31943;51.410;7.564;2023-02-12T06:24:15;38.10;;;27.45;;
46222;SDS011;31943;51.410;7.564;2023-02-12T06:26:41;39.13;;;27.25;;
46222;SDS011;31943;51.410;7.564;2023-02-12T06:29:07;44.67;;;28.40;;
46222;SDS011;31943;51.410;7.564;2023-02-12T06:31:33;41.25;;;27.38;;
46222;SDS011;31943;51.410;7.564;2023-02-12T06:34:03;42.10;;;27.27;;
46222;SDS011;31943;51.410;7.564;2023-02-12T06:36:31;44.03;;;28.25;;
46222;SDS011;31943;51.410;7.564;2023-02-12T06:38:59;44.08;;;27.30;;
46222;SDS011;31943;51.410;7.564;2023-02-12T06:41:25;41.65;;;27.15;;
46222;SDS011;31943;51.410;7.564;2023-02-12T06:43:52;41.33;;;27.42;;
46222;SDS011;31943;51.410;7.564;2023-02-12T06:46:20;42.35;;;27.48;;
46222;SDS011;31943;51.410;7.564;2023-02-12T06:48:46;39.13;;;27.02;;
46222;SDS011;31943;51.410;7.564;2023-02-12T06:51:17;42.55;;;27.92;;
46222;SDS011;31943;51.410;7.564;2023-02-12T06:53:43;39.95;;;27.70;;
46222;SDS011;31943;51.410;7.564;2023-02-12T06:56:10;39.45;;;26.80;;
46222;SDS011;31943;51.410;7.564;2023-02-12T06:58:37;44.80;;;29.52;;
46222;SDS011;31943;51.410;7.564;2023-02-12T07:01:07;42.45;;;28.85;;
46222;SDS011;31943;51.410;7.564;2023-02-12T07:03:33;48.15;;;30.13;;
46222;SDS011;31943;51.410;7.564;2023-02-12T07:05:59;43.08;;;27.48;;
46222;SDS011;31943;51.410;7.564;2023-02-12T07:08:30;47.45;;;30.00;;
46222;SDS011;31943;51.410;7.564;2023-02-12T07:10:56;45.20;;;30.27;;
46222;SDS011;31943;51.410;7.564;2023-02-12T07:13:22;38.35;;;27.48;;
46222;SDS011;31943;51.410;7.564;2023-02-12T07:15:48;47.33;;;32.15;;
46222;SDS011;31943;51.410;7.564;2023-02-12T07:18:15;40.65;;;27.70;;
46222;SDS011;31943;51.410;7.564;2023-02-12T07:20:41;49.70;;;29.48;;
46222;SDS011;31943;51.410;7.564;2023-02-12T07:23:09;50.65;;;30.27;;
46222;SDS011;31943;51.410;7.564;2023-02-12T07:25:36;45.72;;;29.83;;
46222;SDS011;31943;51.410;7.564;2023-02-12T07:28:02;48.65;;;30.45;;
46222;SDS011;31943;51.410;7.564;2023-02-12T07:30:29;43.90;;;28.52;;
46222;SDS011;31943;51.410;7.564;2023-02-12T07:32:54;50.45;;;32.40;;
46222;SDS011;31943;51.410;7.564;2023-02-12T07:35:21;48.17;;;32.67;;
46222;SDS011;31943;51.410;7.564;2023-02-12T07:37:47;51.53;;;32.40;;
46222;SDS011;31943;51.410;7.564;2023-02-12T07:40:15;52.58;;;32.15;;
46222;SDS011;31943;51.410;7.564;2023-02-12T07:42:43;47.88;;;32.10;;
46222;SDS011;31943;51.410;7.564;2023-02-12T07:45:09;54.22;;;33.42;;
46222;SDS011;31943;51.410;7.564;2023-02-12T07:47:37;55.22;;;34.20;;
46222;SDS011;31943;51.410;7.564;2023-02-12T07:50:06;47.97;;;31.15;;
46222;SDS011;31943;51.410;7.564;2023-02-12T07:52:33;54.55;;;34.40;;
46222;SDS011;31943;51.410;7.564;2023-02-12T07:55:00;54.88;;;34.30;;
46222;SDS011;31943;51.410;7.564;2023-02-12T07:57:27;51.47;;;30.48;;
46222;SDS011;31943;51.410;7.564;2023-02-12T07:59:55;53.78;;;34.72;;
46222;SDS011;31943;51.410;7.564;2023-02-12T08:02:21;62.30;;;39.08;;
46222;SDS011;31943;51.410;7.564;2023-02-12T08:04:47;50.22;;;32.63;;
46222;SDS011;31943;51.410;7.564;2023-02-12T08:07:12;57.83;;;38.70;;
46222;SDS011;31943;51.410;7.564;2023-02-12T08:09:38;52.70;;;35.22;;
46222;SDS011;31943;51.410;7.564;2023-02-12T08:12:04;52.63;;;32.47;;
46222;SDS011;31943;51.410;7.564;2023-02-12T08:14:31;49.80;;;30.33;;
46222;SDS011;31943;51.410;7.564;2023-02-12T08:16:59;46.45;;;30.88;;
46222;SDS011;31943;51.410;7.564;2023-02-12T08:19:24;44.28;;;30.40;;
46222;SDS011;31943;51.410;7.564;2023-02-12T08:21:50;49.10;;;32.63;;
46222;SDS011;31943;51.410;7.564;2023-02-12T08:24:18;56.15;;;36.92;;
46222;SDS011;31943;51.410;7.564;2023-02-12T08:26:44;44.83;;;30.25;;
46222;SDS011;31943;51.410;7.564;2023-02-12T08:29:10;44.22;;;29.90;;
46222;SDS011;31943;51.410;7.564;2023-02-12T08:31:39;43.90;;;29.55;;
46222;SDS011;31943;51.410;7.564;2023-02-12T08:34:10;40.33;;;28.70;;
46222;SDS011;31943;51.410;7.564;2023-02-12T08:36:42;44.58;;;27.55;;
46222;SDS011;31943;51.410;7.564;2023-02-12T08:39:29;41.85;;;26.55;;
46222;SDS011;31943;51.410;7.564;2023-02-12T08:41:55;40.80;;;26.23;;
46222;SDS011;31943;51.410;7.564;2023-02-12T08:44:23;38.28;;;25.27;;
46222;SDS011;31943;51.410;7.564;2023-02-12T08:46:53;40.22;;;27.58;;
46222;SDS011;31943;51.410;7.564;2023-02-12T08:49:25;36.00;;;25.20;;
46222;SDS011;31943;51.410;7.564;2023-02-12T08:52:01;41.08;;;24.42;;
46222;SDS011;31943;51.410;7.564;2023-02-12T08:54:29;34.53;;;23.63;;
46222;SDS011;31943;51.410;7.564;2023-02-12T08:57:01;38.05;;;24.52;;
46222;SDS011;31943;51.410;7.564;2023-02-12T08:59:28;30.95;;;21.88;;
46222;SDS011;31943;51.410;7.564;2023-02-12T09:02:09;33.78;;;22.67;;
46222;SDS011;31943;51.410;7.564;2023-02-12T09:04:37;34.72;;;22.75;;
46222;SDS011;31943;51.410;7.564;2023-02-12T09:07:03;35.08;;;24.92;;
46222;SDS011;31943;51.410;7.564;2023-02-12T09:09:29;33.08;;;22.83;;
46222;SDS011;31943;51.410;7.564;2023-02-12T09:11:54;32.95;;;23.55;;
46222;SDS011;31943;51.410;7.564;2023-02-12T09:14:23;36.83;;;24.20;;
46222;SDS011;31943;51.410;7.564;2023-02-12T09:16:49;35.33;;;24.38;;
46222;SDS011;31943;51.410;7.564;2023-02-12T09:19:15;33.45;;;23.73;;
46222;SDS011;31943;51.410;7.564;2023-02-12T09:21:43;37.08;;;23.15;;
46222;SDS011;31943;51.410;7.564;2023-02-12T09:24:09;38.20;;;24.52;;
46222;SDS011;31943;51.410;7.564;2023-02-12T09:26:36;30.45;;;21.73;;
46222;SDS011;31943;51.410;7.564;2023-02-12T09:29:03;34.53;;;21.58;;
46222;SDS011;31943;51.410;7.564;2023-02-12T09:31:34;31.33;;;22.02;;
46222;SDS011;31943;51.410;7.564;2023-02-12T09:34:01;34.80;;;22.77;;
46222;SDS011;31943;51.410;7.564;2023-02-12T09:36:29;32.13;;;23.23;;
46222;SDS011;31943;51.410;7.564;2023-02-12T09:45:09;34.45;;;25.20;;
46222;SDS011;31943;51.410;7.564;2023-02-12T09:47:43;38.17;;;25.13;;
46222;SDS011;31943;51.410;7.564;2023-02-12T09:50:23;32.78;;;22.73;;
46222;SDS011;31943;51.410;7.564;2023-02-12T09:53:04;39.03;;;23.63;;
46222;SDS011;31943;51.410;7.564;2023-02-12T09:55:33;34.50;;;23.05;;
46222;SDS011;31943;51.410;7.564;2023-02-12T09:58:01;35.45;;;25.08;;
46222;SDS011;31943;51.410;7.564;2023-02-12T10:00:32;35.90;;;25.02;;
46222;SDS011;31943;51.410;7.564;2023-02-12T10:02:59;36.08;;;25.70;;
46222;SDS011;31943;51.410;7.564;2023-02-12T10:05:36;42.95;;;26.33;;
46222;SDS011;31943;51.410;7.564;2023-02-12T10:15:00;37.22;;;25.42;;
46222;SDS011;31943;51.410;7.564;2023-02-12T10:17:39;35.72;;;25.10;;
46222;SDS011;31943;51.410;7.564;2023-02-12T10:20:14;36.83;;;24.67;;
46222;SDS011;31943;51.410;7.564;2023-02-12T10:23:04;37.67;;;24.98;;
46222;SDS011;31943;51.410;7.564;2023-02-12T10:25:45;40.97;;;25.27;;
46222;SDS011;31943;51.410;7.564;2023-02-12T10:28:16;38.22;;;24.88;;
46222;SDS011;31943;51.410;7.564;2023-02-12T10:31:07;34.15;;;25.05;;
46222;SDS011;31943;51.410;7.564;2023-02-12T10:33:44;39.70;;;25.65;;
46222;SDS011;31943;51.410;7.564;2023-02-12T10:36:13;35.65;;;23.95;;
46222;SDS011;31943;51.410;7.564;2023-02-12T10:38:49;35.70;;;24.80;;
46222;SDS011;31943;51.410;7.564;2023-02-12T10:41:20;37.88;;;24.65;;
46222;SDS011;31943;51.410;7.564;2023-02-12T10:43:48;33.28;;;24.10;;
46222;SDS011;31943;51.410;7.564;2023-02-12T10:46:16;35.65;;;23.60;;
46222;SDS011;31943;51.410;7.564;2023-02-12T10:48:48;33.60;;;22.83;;
46222;SDS011;31943;51.410;7.564;2023-02-12T10:54:38;33.45;;;23.02;;
46222;SDS011;31943;51.410;7.564;2023-02-12T10:57:29;31.65;;;22.35;;
46222;SDS011;31943;51.410;7.564;2023-02-12T10:59:56;33.72;;;22.92;;
46222;SDS011;31943;51.410;7.564;2023-02-12T11:02:39;31.30;;;22.73;;
46222;SDS011;31943;51.410;7.564;2023-02-12T11:05:41;31.48;;;23.00;;
46222;SDS011;31943;51.410;7.564;2023-02-12T11:08:28;31.27;;;22.23;;
46222;SDS011;31943;51.410;7.564;2023-02-12T11:11:07;36.28;;;24.60;;
46222;SDS011;31943;51.410;7.564;2023-02-12T11:13:36;34.22;;;22.85;;
46222;SDS011;31943;51.410;7.564;2023-02-12T11:16:05;34.03;;;23.30;;
46222;SDS011;31943;51.410;7.564;2023-02-12T11:18:33;34.10;;;23.60;;
46222;SDS011;31943;51.410;7.564;2023-02-12T11:21:02;34.08;;;22.60;;
46222;SDS011;31943;51.410;7.564;2023-02-12T11:23:30;37.17;;;22.50;;
46222;SDS011;31943;51.410;7.564;2023-02-12T11:26:00;32.30;;;22.27;;
46222;SDS011;31943;51.410;7.564;2023-02-12T11:29:01;37.38;;;23.73;;
46222;SDS011;31943;51.410;7.564;2023-02-12T11:34:26;33.67;;;23.77;;
46222;SDS011;31943;51.410;7.564;2023-02-12T11:36:53;34.42;;;23.08;;
46222;SDS011;31943;51.410;7.564;2023-02-12T11:39:22;36.58;;;23.55;;
46222;SDS011;31943;51.410;7.564;2023-02-12T11:41:52;33.33;;;24.00;;
46222;SDS011;31943;51.410;7.564;2023-02-12T11:44:23;33.90;;;22.33;;
46222;SDS011;31943;51.410;7.564;2023-02-12T11:46:53;34.30;;;23.45;;
46222;SDS011;31943;51.410;7.564;2023-02-12T11:49:23;36.78;;;23.98;;
46222;SDS011;31943;51.410;7.564;2023-02-12T11:51:51;37.15;;;23.92;;
46222;SDS011;31943;51.410;7.564;2023-02-12T11:54:21;39.28;;;24.33;;
46222;SDS011;31943;51.410;7.564;2023-02-12T11:56:51;35.20;;;24.27;;
46222;SDS011;31943;51.410;7.564;2023-02-12T11:59:20;31.85;;;22.52;;
46222;SDS011;31943;51.410;7.564;2023-02-12T12:01:55;34.35;;;23.05;;
46222;SDS011;31943;51.410;7.564;2023-02-12T12:04:25;37.83;;;24.77;;
46222;SDS011;31943;51.410;7.564;2023-02-12T12:06:56;35.28;;;24.42;;
46222;SDS011;31943;51.410;7.564;2023-02-12T12:09:27;32.95;;;22.05;;
46222;SDS011;31943;51.410;7.564;2023-02-12T12:12:01;32.30;;;21.48;;
46222;SDS011;31943;51.410;7.564;2023-02-12T12:14:33;29.90;;;20.33;;
46222;SDS011;31943;51.410;7.564;2023-02-12T12:17:03;30.63;;;21.60;;
46222;SDS011;31943;51.410;7.564;2023-02-12T12:19:37;35.08;;;21.65;;
46222;SDS011;31943;51.410;7.564;2023-02-12T12:24:38;31.15;;;21.75;;
46222;SDS011;31943;51.410;7.564;2023-02-12T12:27:14;34.95;;;24.92;;
46222;SDS011;31943;51.410;7.564;2023-02-12T12:29:48;31.67;;;22.27;;
46222;SDS011;31943;51.410;7.564;2023-02-12T12:32:21;31.92;;;21.90;;
46222;SDS011;31943;51.410;7.564;2023-02-12T12:34:54;34.80;;;22.17;;
46222;SDS011;31943;51.410;7.564;2023-02-12T12:37:33;30.83;;;22.67;;
46222;SDS011;31943;51.410;7.564;2023-02-12T12:40:08;27.77;;;20.60;;
46222;SDS011;31943;51.410;7.564;2023-02-12T12:43:10;28.17;;;21.13;;
46222;SDS011;31943;51.410;7.564;2023-02-12T12:45:49;33.00;;;21.38;;
46222;SDS011;31943;51.410;7.564;2023-02-12T12:48:30;31.08;;;20.67;;
46222;SDS011;31943;51.410;7.564;2023-02-12T12:51:13;28.52;;;20.20;;
46222;SDS011;31943;51.410;7.564;2023-02-12T12:54:05;28.83;;;21.48;;
46222;SDS011;31943;51.410;7.564;2023-02-12T12:56:41;33.08;;;21.98;;
46222;SDS011;31943;51.410;7.564;2023-02-12T12:59:36;30.55;;;22.08;;
46222;SDS011;31943;51.410;7.564;2023-02-12T13:02:32;32.88;;;22.67;;
46222;SDS011;31943;51.410;7.564;2023-02-12T13:08:16;32.40;;;22.20;;
46222;SDS011;31943;51.410;7.564;2023-02-12T13:10:52;33.45;;;22.10;;
46222;SDS011;31943;51.410;7.564;2023-02-12T13:13:23;38.08;;;23.60;;
46222;SDS011;31943;51.410;7.564;2023-02-12T13:15:56;33.13;;;23.08;;
46222;SDS011;31943;51.410;7.564;2023-02-12T13:18:30;29.63;;;21.00;;
46222;SDS011;31943;51.410;7.564;2023-02-12T13:21:12;37.30;;;22.92;;
46222;SDS011;31943;51.410;7.564;2023-02-12T13:23:45;28.50;;;21.27;;
46222;SDS011;31943;51.410;7.564;2023-02-12T13:26:21;30.95;;;20.88;;
46222;SDS011;31943;51.410;7.564;2023-02-12T13:28:55;27.23;;;20.85;;
46222;SDS011;31943;51.410;7.564;2023-02-12T13:31:28;27.38;;;20.92;;
46222;SDS011;31943;51.410;7.564;2023-02-12T13:33:59;25.33;;;19.05;;
46222;SDS011;31943;51.410;7.564;2023-02-12T13:36:28;28.50;;;20.88;;
46222;SDS011;31943;51.410;7.564;2023-02-12T13:38:55;31.15;;;23.48;;
46222;SDS011;31943;51.410;7.564;2023-02-12T13:41:27;23.60;;;16.73;;
46222;SDS011;31943;51.410;7.564;2023-02-12T13:44:00;23.77;;;18.02;;
46222;SDS011;31943;51.410;7.564;2023-02-12T13:46:39;21.88;;;18.00;;
46222;SDS011;31943;51.410;7.564;2023-02-12T13:49:16;21.75;;;16.50;;
46222;SDS011;31943;51.410;7.564;2023-02-12T13:51:49;20.35;;;16.23;;
46222;SDS011;31943;51.410;7.564;2023-02-12T13:54:39;21.08;;;16.42;;
46222;SDS011;31943;51.410;7.564;2023-02-12T13:57:18;21.92;;;16.58;;
46222;SDS011;31943;51.410;7.564;2023-02-12T13:59:45;24.88;;;17.17;;
46222;SDS011;31943;51.410;7.564;2023-02-12T14:05:27;20.15;;;16.73;;
46222;SDS011;31943;51.410;7.564;2023-02-12T14:08:01;26.33;;;18.33;;
46222;SDS011;31943;51.410;7.564;2023-02-12T14:10:30;27.90;;;20.20;;
46222;SDS011;31943;51.410;7.564;2023-02-12T14:13:08;29.50;;;21.05;;
46222;SDS011;31943;51.410;7.564;2023-02-12T14:18:25;28.02;;;18.95;;
46222;SDS011;31943;51.410;7.564;2023-02-12T14:27:13;29.85;;;20.60;;
46222;SDS011;31943;51.410;7.564;2023-02-12T14:30:01;42.55;;;29.20;;
46222;SDS011;31943;51.410;7.564;2023-02-12T14:33:09;28.00;;;20.70;;
46222;SDS011;31943;51.410;7.564;2023-02-12T14:41:26;34.88;;;26.17;;
46222;SDS011;31943;51.410;7.564;2023-02-12T14:47:10;46.70;;;35.05;;
46222;SDS011;31943;51.410;7.564;2023-02-12T14:49:51;38.90;;;30.08;;
46222;SDS011;31943;51.410;7.564;2023-02-12T14:52:19;32.42;;;23.90;;
46222;SDS011;31943;51.410;7.564;2023-02-12T14:54:51;34.42;;;24.05;;
46222;SDS011;31943;51.410;7.564;2023-02-12T14:57:20;39.13;;;28.20;;
46222;SDS011;31943;51.410;7.564;2023-02-12T15:02:21;34.10;;;25.35;;
46222;SDS011;31943;51.410;7.564;2023-02-12T15:04:49;31.63;;;24.45;;
46222;SDS011;31943;51.410;7.564;2023-02-12T15:07:19;29.02;;;22.15;;
46222;SDS011;31943;51.410;7.564;2023-02-12T15:09:54;29.42;;;22.65;;
46222;SDS011;31943;51.410;7.564;2023-02-12T15:12:25;32.13;;;21.95;;
46222;SDS011;31943;51.410;7.564;2023-02-12T15:14:57;31.83;;;23.13;;
46222;SDS011;31943;51.410;7.564;2023-02-12T15:17:31;35.65;;;27.95;;
46222;SDS011;31943;51.410;7.564;2023-02-12T15:20:02;42.25;;;29.75;;
46222;SDS011;31943;51.410;7.564;2023-02-12T15:22:32;40.97;;;29.90;;
46222;SDS011;31943;51.410;7.564;2023-02-12T15:25:15;35.25;;;25.80;;
46222;SDS011;31943;51.410;7.564;2023-02-12T15:27:46;34.47;;;26.05;;
46222;SDS011;31943;51.410;7.564;2023-02-12T15:30:14;36.00;;;27.20;;
46222;SDS011;31943;51.410;7.564;2023-02-12T15:32:43;35.80;;;24.67;;
46222;SDS011;31943;51.410;7.564;2023-02-12T15:35:15;34.22;;;24.52;;